Latest Coastal Weather Observations for Aireys Inlet

IDV60701

Issued at 2:31 am EST Monday 29 August 2016 (issued every 10 minutes, with the page automatically refreshed every 10 minutes)

About coastal observations | Map of coastal stations | Coastal observations for VIC | Marine services | Other Formats
Station Details ID: 090180 Name: AIREYS INLET Lat: -38.46 Lon: 144.09 Height: 105.0 m
Data from the previous 72 hours. | See also: Recent months at Aireys Inlet
Date/Time
EST
Temp
°C
Wind Pressure Rain since
9am
mm
Weather Cloud Vis
km
Sea
Height
m
Swell
Dir  Spd
kts
Gust
kts
hPa Trend Height
m
Period
s
Dir
29/02:30am 11.4 N 5 7 - - 0.0 - - - - - - -
29/02:00am 9.2 NNW 5 6 - - 0.0 - - - - - - -
29/01:30am 9.3 NW 6 7 - - 0.0 - - - - - - -
29/01:00am 9.4 NNW 3 5 - - 0.0 - - - - - - -
29/12:30am 9.4 NNE 3 4 - - 0.0 - - - - - - -
29/12:00am 10.2 NE 4 6 - - 0.0 - - - - - - -
 
Date/Time
EST
Temp
°C
Wind Pressure Rain since
9am
mm
Weather Cloud Vis
km
Sea
Height
m
Swell
Dir  Spd
kts
Gust
kts
hPa Trend Height
m
Period
s
Dir
28/11:30pm 10.2 NE 4 5 - - 0.0 - - - - - - -
28/11:00pm 9.8 NNE 3 4 - - 0.0 - - - - - - -
28/10:30pm 10.3 NE 4 5 - - 0.0 - - - - - - -
28/10:00pm 9.4 N 3 4 - - 0.0 - - - - - - -
28/09:30pm 9.5 N 4 5 - - 0.0 - - - - - - -
28/09:00pm 9.7 NNW 3 4 - - 0.0 - - - - - - -
28/08:30pm 9.6 NNW 3 4 - - 0.0 - - - - - - -
28/08:00pm 9.9 N 3 4 - - 0.0 - - - - - - -
28/07:30pm 9.9 N 3 3 - - 0.0 - - - - - - -
28/07:00pm 11.0 ESE 1 1 - - 0.0 - - - - - - -
28/06:30pm 11.2 SE 1 1 - - 0.0 - - - - - - -
28/06:00pm 11.4 SE 1 2 - - 0.0 - - - - - - -
28/05:30pm 12.0 SE 2 3 - - 0.0 - - - - - - -
28/05:00pm 12.4 ESE 3 4 - - 0.0 - - - - - - -
28/04:30pm 12.7 E 2 3 - - 0.0 - - - - - - -
28/04:00pm 12.6 E 2 3 - - 0.0 - - - - - - -
28/03:30pm 12.8 E 2 3 - - 0.0 - - - - - - -
28/03:00pm 13.3 E 2 5 - - 0.0 - - - - - - -
28/02:30pm 14.5 ESE 3 5 - - 0.0 - - - - - - -
28/02:00pm 13.4 SSE 2 3 - - 0.0 - - - - - - -
28/01:30pm 13.5 SE 3 4 - - 0.0 - - - - - - -
28/01:00pm 14.2 SSE 6 8 - - 0.0 - - - - - - -
28/12:30pm 14.9 SE 4 6 - - 0.0 - - - - - - -
28/12:00pm 14.8 SSE 3 5 - - 0.0 - - - - - - -
28/11:30am 14.8 S 3 5 - - 0.0 - - - - - - -
28/11:00am 14.5 SW 3 6 - - 0.0 - - - - - - -
28/10:30am 13.9 WSW 5 7 - - 0.0 - - - - - - -
28/10:00am 13.1 WNW 8 13 - - 0.0 - - - - - - -
28/09:30am 12.3 W 2 6 - - 0.0 - - - - - - -
28/09:00am 11.3 WNW 7 11 - - 0.0 - - - - - - -
28/08:30am 10.3 NW 8 13 - - 0.0 - - - - - - -
28/08:00am 9.8 NW 9 12 - - 0.0 - - - - - - -
28/07:30am 9.7 NW 9 12 - - 0.0 - - - - - - -
28/07:00am 9.7 W 5 9 - - 0.0 - - - - - - -
28/06:30am 9.8 NW 10 14 - - 0.0 - - - - - - -
28/06:00am 9.8 NW 11 15 - - 0.0 - - - - - - -
28/05:30am 9.9 NW 10 14 - - 0.0 - - - - - - -
28/05:00am 9.8 NW 6 8 - - 0.0 - - - - - - -
28/04:30am 10.1 NW 9 15 - - 0.0 - - - - - - -
28/04:00am 10.2 NNW 12 19 - - 0.0 - - - - - - -
28/03:30am 10.5 NW 18 23 - - 0.0 - - - - - - -
28/03:00am 10.7 NW 17 25 - - 0.0 - - - - - - -
28/02:30am 10.9 NW 21 33 - - 0.0 - - - - - - -
28/02:06am 11.0 NW 21 31 - - 0.0 - - - - - - -
28/02:00am 11.2 NW 22 31 - - 0.0 - - - - - - -
28/01:30am 11.4 NW 21 32 - - 0.0 - - - - - - -
28/01:13am 11.3 NW 21 31 - - 0.0 - - - - - - -
28/01:00am 11.2 NW 19 29 - - 0.0 - - - - - - -
28/12:40am 11.2 NW 20 33 - - 0.0 - - - - - - -
28/12:30am 11.1 NW 19 29 - - 0.0 - - - - - - -
28/12:00am 11.0 NW 21 29 - - 0.0 - - - - - - -
 
Date/Time
EST
Temp
°C
Wind Pressure Rain since
9am
mm
Weather Cloud Vis
km
Sea
Height
m
Swell
Dir  Spd
kts
Gust
kts
hPa Trend Height
m
Period
s
Dir
27/11:30pm 10.9 NW 22 30 - - 0.0 - - - - - - -
27/11:00pm 11.1 NW 23 31 - - 0.0 - - - - - - -
27/10:30pm 11.2 NW 19 30 - - 0.0 - - - - - - -
27/10:00pm 11.3 NNW 20 32 - - 0.0 - - - - - - -
27/09:32pm 11.4 NW 20 32 - - 0.0 - - - - - - -
27/09:30pm 11.5 NW 20 29 - - 0.0 - - - - - - -
27/09:10pm 11.3 NW 18 29 - - 0.0 - - - - - - -
27/09:00pm 11.2 NW 18 27 - - 0.0 - - - - - - -
27/08:34pm 11.4 NW 19 31 - - 0.0 - - - - - - -
27/08:30pm 11.4 NW 19 28 - - 0.0 - - - - - - -
27/08:10pm 11.4 NW 17 27 - - 0.0 - - - - - - -
27/08:00pm 11.3 NW 16 26 - - 0.0 - - - - - - -
27/07:34pm 11.4 NW 18 29 - - 0.0 - - - - - - -
27/07:30pm 11.4 NW 16 26 - - 0.0 - - - - - - -
27/07:00pm 11.4 NW 15 24 - - 0.0 - - - - - - -
27/06:30pm 11.4 NNW 13 20 - - 0.0 - - - - - - -
27/06:00pm 11.7 NW 14 25 - - 0.0 - - - - - - -
27/05:30pm 11.9 NW 14 24 - - 0.0 - - - - - - -
27/05:03pm 12.1 NNW 15 28 - - 0.0 - - - - - - -
27/05:00pm 12.0 NNW 13 22 - - 0.0 - - - - - - -
27/04:44pm 12.3 NNW 15 25 - - 0.0 - - - - - - -
27/04:30pm 12.3 NW 12 23 - - 0.0 - - - - - - -
27/04:00pm 12.8 NNW 10 20 - - 0.0 - - - - - - -
27/03:30pm 12.6 NNW 8 13 - - 0.0 - - - - - - -
27/03:00pm 12.3 NW 16 23 - - 0.0 - - - - - - -
27/02:44pm 12.5 NW 15 26 - - 0.0 - - - - - - -
27/02:30pm 12.1 NNW 12 23 - - 0.0 - - - - - - -
27/02:00pm 11.8 NNW 11 20 - - 0.0 - - - - - - -
27/01:30pm 11.4 NNW 10 16 - - 0.0 - - - - - - -
27/01:00pm 11.4 NNW 12 18 - - 0.0 - - - - - - -
27/12:30pm 11.8 NW 15 23 - - 0.0 - - - - - - -
27/12:01pm 12.0 NW 15 26 - - 0.0 - - - - - - -
27/12:00pm 12.0 NW 16 26 - - 0.0 - - - - - - -
27/11:30am 12.4 NW 16 27 - - 0.0 - - - - - - -
27/11:23am 12.4 NW 17 28 - - 0.0 - - - - - - -
27/11:00am 11.7 NW 16 25 - - 0.0 - - - - - - -
27/10:30am 11.6 NW 17 24 - - 0.0 - - - - - - -
27/10:00am 11.4 NW 13 21 - - 0.0 - - - - - - -
27/09:30am 10.6 NW 17 25 - - 0.0 - - - - - - -
27/09:00am 9.7 NW 15 26 - - 0.0 - - - - - - -
27/08:57am 9.7 NW 15 26 - - 0.0 - - - - - - -
27/08:30am 9.3 NW 16 24 - - 0.0 - - - - - - -
27/08:00am 9.1 NW 14 24 - - 0.0 - - - - - - -
27/07:30am 8.6 NW 12 19 - - 0.0 - - - - - - -
27/07:00am 8.1 NW 14 25 - - 0.0 - - - - - - -
27/06:55am 8.3 NW 15 25 - - 0.0 - - - - - - -
27/06:30am 7.8 NW 15 23 - - 0.0 - - - - - - -
27/06:00am 7.5 NW 17 26 - - 0.0 - - - - - - -
27/05:30am 7.7 NW 17 27 - - 0.0 - - - - - - -
27/05:00am 8.0 NW 19 31 - - 0.0 - - - - - - -
27/04:53am 8.2 NW 19 31 - - 0.0 - - - - - - -
27/04:30am 8.0 WNW 16 26 - - 0.0 - - - - - - -
27/04:28am 7.9 WNW 15 26 - - 0.0 - - - - - - -
27/04:00am 7.6 NW 18 25 - - 0.0 - - - - - - -
27/03:30am 7.9 NW 19 28 - - 0.0 - - - - - - -
27/03:21am 7.9 NW 18 28 - - 0.0 - - - - - - -
27/03:00am 8.1 NW 18 27 - - 0.0 - - - - - - -
27/02:30am 8.2 NW 17 27 - - 0.0 - - - - - - -
27/02:25am 8.3 NW 17 27 - - 0.0 - - - - - - -
27/02:00am 8.7 NW 17 24 - - 0.0 - - - - - - -
27/01:30am 8.5 NW 16 24 - - 0.0 - - - - - - -
27/01:21am 8.7 NW 15 25 - - 0.0 - - - - - - -
27/01:00am 8.8 NW 17 25 - - 0.0 - - - - - - -
27/12:30am 8.9 NW 15 22 - - 0.0 - - - - - - -
27/12:00am 8.7 WNW 6 12 - - 0.0 - - - - - - -
 
Date/Time
EST
Temp
°C
Wind Pressure Rain since
9am
mm
Weather Cloud Vis
km
Sea
Height
m
Swell
Dir  Spd
kts
Gust
kts
hPa Trend Height
m
Period
s
Dir
26/11:30pm 8.9 NW 6 14 - - 0.0 - - - - - - -
26/11:00pm 8.6 W 5 13 - - 0.0 - - - - - - -
26/10:30pm 8.4 WNW 4 7 - - 0.0 - - - - - - -
26/10:00pm 8.7 NW 7 12 - - 0.0 - - - - - - -
26/09:30pm 8.9 NNW 2 4 - - 0.0 - - - - - - -
26/09:00pm 9.0 WNW 5 8 - - 0.0 - - - - - - -
26/08:30pm 9.3 WNW 5 9 - - 0.0 - - - - - - -
26/08:00pm 9.8 NW 5 15 - - 0.0 - - - - - - -
26/07:30pm 10.2 NW 8 12 - - 0.0 - - - - - - -
26/07:00pm 10.3 NW 8 12 - - 0.0 - - - - - - -
26/06:30pm 10.5 NW 11 16 - - 0.0 - - - - - - -
26/06:00pm 10.5 NW 9 13 - - 0.0 - - - - - - -
26/05:30pm 10.6 NW 7 12 - - 0.0 - - - - - - -
26/05:00pm 11.8 NW 10 15 - - 0.0 - - - - - - -
26/04:30pm 11.3 NW 9 14 - - 0.0 - - - - - - -
26/04:00pm 11.5 NW 5 8 - - 0.0 - - - - - - -
26/03:30pm 11.6 W 6 8 - - 0.0 - - - - - - -
26/03:00pm 11.6 WNW 9 15 - - 0.0 - - - - - - -
26/02:30pm 11.6 NW 7 13 - - 0.0 - - - - - - -
26/02:00pm 11.7 WNW 9 13 - - 0.0 - - - - - - -
26/01:30pm 11.7 WNW 12 19 - - 0.0 - - - - - - -
26/01:00pm 11.4 NW 11 16 - - 0.0 - - - - - - -
26/12:30pm 12.5 NW 9 13 - - 0.0 - - - - - - -
26/12:00pm 12.0 NW 8 13 - - 0.0 - - - - - - -
26/11:30am 10.9 WNW 8 13 - - 0.0 - - - - - - -
26/11:00am 11.1 NW 7 12 - - 0.0 - - - - - - -
26/10:30am 9.9 WNW 8 12 - - 0.0 - - - - - - -
26/10:00am 9.1 NW 9 13 - - 0.0 - - - - - - -
26/09:30am 9.0 WNW 9 12 - - 0.0 - - - - - - -
26/09:00am 8.7 WNW 10 14 - - 1.2 - - - - - - -
26/08:30am 7.7 NW 8 12 - - 1.2 - - - - - - -
26/08:00am 7.3 NW 10 13 - - 1.2 - - - - - - -
26/07:30am 7.3 NW 11 14 - - 1.2 - - - - - - -
26/07:00am 7.5 WNW 11 15 - - 1.2 - - - - - - -
26/06:30am 7.4 WNW 9 13 - - 1.2 - - - - - - -
26/06:00am 6.7 NW 8 11 - - 1.2 - - - - - - -
26/05:30am 6.4 NW 9 12 - - 1.2 - - - - - - -
26/05:00am 6.4 NW 9 13 - - 1.2 - - - - - - -
26/04:30am 6.6 NW 10 12 - - 1.2 - - - - - - -
26/04:00am 6.3 NW 9 11 - - 1.2 - - - - - - -
26/03:30am 7.2 WNW 7 10 - - 1.2 - - - - - - -
26/03:00am 7.5 WNW 7 9 - - 1.2 - - - - - - -

Other Formats:

Comma delimited format used in spreadsheet applications
http://www.bom.gov.au/fwo/IDV60701/IDV60701.94846.axf

JavaScript Object Notation format (JSON) in row-major order
http://www.bom.gov.au/fwo/IDV60701/IDV60701.94846.json